createdAt,value
2019-04-27T00:00:07.655Z,927.87
2019-04-27T00:01:40.642Z,927.86
2019-04-27T00:03:13.222Z,927.89
2019-04-27T00:04:43.122Z,927.91
2019-04-27T00:06:15.044Z,927.94
2019-04-27T00:07:46.980Z,927.97
2019-04-27T00:09:18.660Z,928.00
2019-04-27T00:10:50.452Z,928.01
2019-04-27T00:12:25.949Z,927.95
2019-04-27T00:13:54.011Z,927.98
2019-04-27T00:15:31.282Z,927.96
2019-04-27T00:16:57.634Z,927.95
2019-04-27T00:18:29.485Z,927.95
2019-04-27T00:20:01.285Z,927.92
2019-04-27T00:21:33.140Z,927.94
2019-04-27T00:23:04.901Z,927.92
2019-04-27T00:24:36.914Z,927.94
2019-04-27T00:26:08.582Z,927.94
2019-04-27T00:27:40.450Z,927.99
2019-04-27T00:29:13.660Z,927.99
2019-04-27T00:30:43.981Z,927.99
2019-04-27T00:32:15.894Z,928.02
2019-04-27T00:33:47.913Z,928.03
2019-04-27T00:35:19.652Z,928.00
2019-04-27T00:36:51.235Z,928.01
2019-04-27T00:38:23.368Z,928.00
2019-04-27T00:39:55.090Z,928.03
2019-04-27T00:41:26.888Z,928.03
2019-04-27T00:42:58.599Z,927.99
2019-04-27T00:44:30.315Z,927.92
2019-04-27T00:46:03.941Z,927.88
2019-04-27T00:47:35.046Z,927.85
2019-04-27T00:49:06.023Z,927.85
2019-04-27T00:50:37.584Z,927.86
2019-04-27T00:52:09.397Z,927.86
2019-04-27T00:53:41.214Z,927.88
2019-04-27T00:55:13.377Z,927.84
2019-04-27T00:56:44.875Z,927.81
2019-04-27T00:58:16.763Z,927.78
2019-04-27T00:59:48.473Z,927.75
2019-04-27T01:01:20.557Z,927.72
2019-04-27T01:02:53.611Z,927.71
2019-04-27T01:04:23.982Z,927.76
2019-04-27T01:05:55.844Z,927.76
2019-04-27T01:07:27.601Z,927.71
2019-04-27T01:08:59.416Z,927.69
2019-04-27T01:10:31.182Z,927.64
2019-04-27T01:12:03.599Z,927.67
2019-04-27T01:13:35.067Z,927.66
2019-04-27T01:15:06.730Z,927.70
2019-04-27T01:16:39.205Z,927.68
2019-04-27T01:18:14.636Z,927.64
2019-04-27T01:19:42.275Z,927.74
2019-04-27T01:21:13.891Z,927.74
2019-04-27T01:22:45.706Z,927.75
2019-04-27T01:24:18.899Z,927.74
2019-04-27T01:25:51.049Z,927.72
2019-04-27T01:27:21.152Z,927.77
2019-04-27T01:28:52.968Z,927.74
2019-04-27T01:30:24.783Z,927.69
2019-04-27T01:31:58.859Z,927.70
2019-04-27T01:33:30.292Z,927.71
2019-04-27T01:35:00.252Z,927.68
2019-04-27T01:36:32.160Z,927.70
2019-04-27T01:38:03.979Z,927.67
2019-04-27T01:39:35.715Z,927.63
2019-04-27T01:41:08.994Z,927.60
2019-04-27T01:42:39.584Z,927.62
2019-04-27T01:44:11.226Z,927.51
2019-04-27T01:45:42.968Z,927.50
2019-04-27T01:47:14.778Z,927.55
2019-04-27T01:48:46.599Z,927.53
2019-04-27T01:50:18.920Z,927.54
2019-04-27T01:51:50.218Z,927.52
2019-04-27T01:53:22.032Z,927.54
2019-04-27T01:54:53.846Z,927.50
2019-04-27T01:56:25.853Z,927.45
2019-04-27T01:57:58.518Z,927.46
2019-04-27T01:59:30.044Z,927.39
2019-04-27T02:01:01.642Z,927.35
2019-04-27T02:02:32.916Z,927.37
2019-04-27T02:04:04.730Z,927.37
2019-04-27T02:05:36.568Z,927.37
2019-04-27T02:07:09.302Z,927.34
2019-04-27T02:08:40.380Z,927.33
2019-04-27T02:10:11.993Z,927.30
2019-04-27T02:11:44.742Z,927.35
2019-04-27T02:13:16.274Z,927.31
2019-04-27T02:14:49.102Z,927.32
2019-04-27T02:16:19.254Z,927.31
2019-04-27T02:17:51.162Z,927.31
2019-04-27T02:19:22.884Z,927.35
2019-04-27T02:20:54.858Z,927.28
2019-04-27T02:22:27.091Z,927.24
2019-04-27T02:23:59.826Z,927.27
2019-04-27T02:25:30.156Z,927.25
2019-04-27T02:27:02.491Z,927.24
2019-04-27T02:28:33.792Z,927.21
2019-04-27T02:30:06.582Z,927.24
2019-04-27T02:31:40.182Z,927.25
2019-04-27T02:33:12.277Z,927.20
2019-04-27T02:34:41.038Z,927.22
2019-04-27T02:36:15.151Z,927.19
2019-04-27T02:37:44.671Z,927.18
2019-04-27T02:39:21.316Z,927.12
2019-04-27T02:40:49.590Z,927.12
2019-04-27T02:42:20.336Z,927.07
2019-04-27T02:43:51.953Z,927.08
2019-04-27T02:45:23.844Z,927.07
2019-04-27T02:46:55.561Z,927.02
2019-04-27T02:48:29.569Z,927.04
2019-04-27T02:50:00.615Z,927.01
2019-04-27T02:51:31.503Z,926.97
2019-04-27T02:53:03.349Z,926.98
2019-04-27T02:54:34.639Z,927.02
2019-04-27T02:56:06.450Z,927.02
2019-04-27T02:57:39.969Z,927.01
2019-04-27T02:59:11.958Z,927.02
2019-04-27T03:00:41.892Z,927.00
2019-04-27T03:02:13.711Z,927.01
2019-04-27T03:03:45.536Z,927.03
2019-04-27T03:05:19.641Z,927.01
2019-04-27T03:06:50.064Z,927.03
2019-04-27T03:08:20.981Z,926.98
2019-04-27T03:09:52.884Z,927.02
2019-04-27T03:11:24.600Z,926.99
2019-04-27T03:12:57.355Z,926.99
2019-04-27T03:14:35.876Z,926.97
2019-04-27T03:16:00.497Z,926.95
2019-04-27T03:17:31.860Z,926.94
2019-04-27T03:19:14.315Z,926.95
2019-04-27T03:20:35.490Z,926.96
2019-04-27T03:22:09.729Z,926.97
2019-04-27T03:23:41.218Z,926.95
2019-04-27T03:25:14.962Z,926.97
2019-04-27T03:26:42.799Z,927.00
2019-04-27T03:28:14.672Z,927.02
2019-04-27T03:29:46.380Z,927.02
2019-04-27T03:31:21.562Z,927.01
2019-04-27T03:32:54.670Z,926.97
2019-04-27T03:34:22.671Z,926.97
2019-04-27T03:35:53.644Z,926.97
2019-04-27T03:37:25.492Z,926.99
2019-04-27T03:38:59.908Z,927.02
2019-04-27T03:40:30.711Z,927.02
2019-04-27T03:42:00.901Z,927.03
2019-04-27T03:43:32.749Z,927.02
2019-04-27T03:45:04.532Z,927.02
2019-04-27T03:46:36.597Z,927.00
2019-04-27T03:48:10.264Z,926.95
2019-04-27T03:49:41.544Z,926.91
2019-04-27T03:51:11.795Z,926.91
2019-04-27T03:52:43.608Z,926.93
2019-04-27T03:54:15.426Z,926.91
2019-04-27T03:55:49.989Z,926.94
2019-04-27T03:57:19.963Z,926.98
2019-04-27T03:58:50.868Z,926.98
2019-04-27T04:00:22.722Z,927.01
2019-04-27T04:01:54.544Z,927.03
2019-04-27T04:03:26.315Z,927.01
2019-04-27T04:04:59.591Z,927.02
2019-04-27T04:06:29.947Z,926.98
2019-04-27T04:08:01.776Z,926.94
2019-04-27T04:09:33.572Z,926.91
2019-04-27T04:11:05.454Z,926.86
2019-04-27T04:12:37.253Z,926.89
2019-04-27T04:14:10.117Z,926.84
2019-04-27T04:15:40.842Z,926.80
2019-04-27T04:17:12.926Z,926.80
2019-04-27T04:18:44.517Z,926.79
2019-04-27T04:20:16.275Z,926.75
2019-04-27T04:21:50.349Z,926.73
2019-04-27T04:23:20.610Z,926.75
2019-04-27T04:24:51.724Z,926.71
2019-04-27T04:26:23.537Z,926.65
2019-04-27T04:27:55.349Z,926.62
2019-04-27T04:29:27.164Z,926.65
2019-04-27T04:31:00.446Z,926.57
2019-04-27T04:32:30.795Z,926.57
2019-04-27T04:34:02.611Z,926.54
2019-04-27T04:35:34.424Z,926.58
2019-04-27T04:37:06.244Z,926.57
2019-04-27T04:38:40.165Z,926.57
2019-04-27T04:40:09.921Z,926.57
2019-04-27T04:41:43.703Z,926.58
2019-04-27T04:43:13.498Z,926.57
2019-04-27T04:44:45.316Z,926.50
2019-04-27T04:46:19.547Z,926.57
2019-04-27T04:47:49.745Z,926.56
2019-04-27T04:49:20.757Z,926.56
2019-04-27T04:50:52.577Z,926.55
2019-04-27T04:52:24.387Z,926.53
2019-04-27T04:53:56.205Z,926.54
2019-04-27T04:55:30.353Z,926.58
2019-04-27T04:56:59.831Z,926.56
2019-04-27T04:58:31.656Z,926.55
2019-04-27T05:00:03.564Z,926.57
2019-04-27T05:01:35.336Z,926.58
2019-04-27T05:03:07.089Z,926.60
2019-04-27T05:04:39.098Z,926.56
2019-04-27T05:06:10.724Z,926.56
2019-04-27T05:07:42.562Z,926.45
2019-04-27T05:09:14.349Z,926.44
2019-04-27T05:10:46.165Z,926.42
2019-04-27T05:12:19.041Z,926.44
2019-04-27T05:13:49.793Z,926.42
2019-04-27T05:15:21.669Z,926.36
2019-04-27T05:16:53.441Z,926.33
2019-04-27T05:18:26.026Z,926.31
2019-04-27T05:19:57.062Z,926.31
2019-04-27T05:21:29.456Z,926.31
2019-04-27T05:23:00.749Z,926.34
2019-04-27T05:24:32.596Z,926.34
2019-04-27T05:26:04.313Z,926.35
2019-04-27T05:27:36.141Z,926.34
2019-04-27T05:29:09.119Z,926.34
2019-04-27T05:30:39.758Z,926.32
2019-04-27T05:32:11.574Z,926.34
2019-04-27T05:33:43.393Z,926.31
2019-04-27T05:35:15.205Z,926.31
2019-04-27T05:36:48.484Z,926.32
2019-04-27T05:38:19.405Z,926.30
2019-04-27T05:39:50.697Z,926.33
2019-04-27T05:41:22.458Z,926.31
2019-04-27T05:42:55.261Z,926.30
2019-04-27T05:44:26.109Z,926.26
2019-04-27T05:46:01.036Z,926.26
2019-04-27T05:47:29.717Z,926.18
2019-04-27T05:49:06.009Z,926.15
2019-04-27T05:50:38.819Z,926.21
2019-04-27T05:52:08.516Z,926.20
2019-04-27T05:53:37.026Z,926.21
2019-04-27T05:55:10.391Z,926.25
2019-04-27T05:56:40.659Z,926.26
2019-04-27T05:58:12.419Z,926.27
2019-04-27T05:59:44.234Z,926.23
2019-04-27T06:01:16.150Z,926.23
2019-04-27T06:02:48.718Z,926.26
2019-04-27T06:04:19.679Z,926.25
2019-04-27T06:05:51.493Z,926.27
2019-04-27T06:07:23.321Z,926.28
2019-04-27T06:08:55.122Z,926.22
2019-04-27T06:10:26.940Z,926.24
2019-04-27T06:11:59.161Z,926.20
2019-04-27T06:13:31.368Z,926.21
2019-04-27T06:15:02.410Z,926.24
2019-04-27T06:16:34.200Z,926.20
2019-04-27T06:18:06.014Z,926.21
2019-04-27T06:19:39.064Z,926.23
2019-04-27T06:21:09.874Z,926.25
2019-04-27T06:22:41.455Z,926.19
2019-04-27T06:24:13.276Z,926.24
2019-04-27T06:25:45.094Z,926.24
2019-04-27T06:27:18.555Z,926.23
2019-04-27T06:28:50.437Z,926.19
2019-04-27T06:30:21.116Z,926.19
2019-04-27T06:31:53.118Z,926.12
2019-04-27T06:34:58.968Z,926.03
2019-04-27T06:36:28.770Z,926.00
2019-04-27T06:38:00.638Z,925.94
2019-04-27T06:41:16.517Z,925.94
2019-04-27T06:44:11.019Z,925.94
2019-04-27T06:45:38.868Z,925.94
2019-04-27T06:47:10.485Z,925.96
2019-04-27T06:48:42.321Z,925.94
2019-04-27T06:50:14.354Z,925.95
2019-04-27T06:51:45.928Z,925.93
2019-04-27T06:53:19.145Z,925.95
2019-04-27T06:54:49.555Z,926.01
2019-04-27T06:56:21.368Z,926.01
2019-04-27T06:57:53.184Z,926.00
2019-04-27T06:59:24.998Z,925.99
2019-04-27T07:00:56.816Z,926.03
2019-04-27T07:02:29.208Z,926.00
2019-04-27T07:04:00.442Z,926.00
2019-04-27T07:05:32.272Z,926.03
2019-04-27T07:07:04.070Z,926.00
2019-04-27T07:08:35.987Z,925.99
2019-04-27T07:10:08.670Z,925.97
2019-04-27T07:11:39.631Z,926.03
2019-04-27T07:13:11.331Z,926.00
2019-04-27T07:14:52.276Z,926.01
2019-04-27T07:16:15.690Z,926.01
2019-04-27T07:17:48.709Z,925.99
2019-04-27T07:19:19.090Z,926.01
2019-04-27T07:20:50.502Z,926.02
2019-04-27T07:22:22.225Z,925.97
2019-04-27T07:23:54.032Z,926.02
2019-04-27T07:25:25.845Z,926.04
2019-04-27T07:26:59.402Z,926.03
2019-04-27T07:28:29.474Z,926.07
2019-04-27T07:30:01.870Z,926.06
2019-04-27T07:31:33.103Z,926.10
2019-04-27T07:33:05.022Z,926.05
2019-04-27T07:34:36.733Z,926.10
2019-04-27T07:36:09.040Z,926.13
2019-04-27T07:37:40.369Z,926.16
2019-04-27T07:39:12.177Z,926.16
2019-04-27T07:40:43.994Z,926.15
2019-04-27T07:42:16.970Z,926.13
2019-04-27T07:43:49.348Z,926.17
2019-04-27T07:45:19.996Z,926.09
2019-04-27T07:46:51.252Z,926.09
2019-04-27T07:48:23.077Z,926.07
2019-04-27T07:49:54.878Z,926.07
2019-04-27T07:51:32.080Z,926.09
2019-04-27T07:52:58.748Z,926.14
2019-04-27T07:54:30.344Z,926.15
2019-04-27T07:56:02.156Z,926.14
2019-04-27T07:57:33.951Z,926.17
2019-04-27T07:59:05.766Z,926.18
2019-04-27T08:00:39.382Z,926.14
2019-04-27T08:02:11.071Z,926.17
2019-04-27T08:03:41.410Z,926.18
2019-04-27T08:05:13.034Z,926.22
2019-04-27T08:06:44.839Z,926.25
2019-04-27T08:08:16.664Z,926.23
2019-04-27T08:09:49.622Z,926.27
2019-04-27T08:11:20.284Z,926.27
2019-04-27T08:12:53.034Z,926.24
2019-04-27T08:14:23.911Z,926.29
2019-04-27T08:15:55.741Z,926.33
2019-04-27T08:17:30.064Z,926.36
2019-04-27T08:19:00.037Z,926.36
2019-04-27T08:20:31.170Z,926.33
2019-04-27T08:22:03.201Z,926.30
2019-04-27T08:23:35.540Z,926.32
2019-04-27T08:26:40.545Z,926.35
2019-04-27T08:28:10.772Z,926.34
2019-04-27T08:29:42.842Z,926.32
2019-04-27T08:31:14.442Z,926.39
2019-04-27T08:32:46.230Z,926.35
2019-04-27T08:34:18.442Z,926.38
2019-04-27T08:35:49.321Z,926.40
2019-04-27T08:37:21.583Z,926.47
2019-04-27T08:38:54.514Z,926.49
2019-04-27T08:41:57.186Z,926.49
2019-04-27T08:43:29.012Z,926.50
2019-04-27T08:45:00.206Z,926.52
2019-04-27T08:46:32.032Z,926.57
2019-04-27T08:48:03.845Z,926.54
2019-04-27T08:49:35.652Z,926.59
2019-04-27T08:51:09.420Z,926.59
2019-04-27T08:52:41.860Z,926.59
2019-04-27T08:54:11.095Z,926.66
2019-04-27T08:55:42.911Z,926.67
2019-04-27T08:57:14.726Z,926.64
2019-04-27T08:58:46.642Z,926.64
2019-04-27T09:00:19.311Z,926.63
2019-04-27T09:01:50.170Z,926.65
2019-04-27T09:03:21.987Z,926.64
2019-04-27T09:04:53.800Z,926.69
2019-04-27T09:06:26.043Z,926.67
2019-04-27T09:07:57.436Z,926.68
2019-04-27T09:09:29.571Z,926.69
2019-04-27T09:11:01.059Z,926.72
2019-04-27T09:12:32.875Z,926.68
2019-04-27T09:14:04.695Z,926.71
2019-04-27T09:15:36.505Z,926.72
2019-04-27T09:17:09.650Z,926.73
2019-04-27T09:18:41.006Z,926.69
2019-04-27T09:20:11.952Z,926.71
2019-04-27T09:21:43.764Z,926.72
2019-04-27T09:23:15.579Z,926.67
2019-04-27T09:24:49.292Z,926.72
2019-04-27T09:26:19.209Z,926.72
2019-04-27T09:27:51.024Z,926.77
2019-04-27T09:29:22.839Z,926.70
2019-04-27T09:30:54.661Z,926.74
2019-04-27T09:32:26.470Z,926.76
2019-04-27T09:33:58.285Z,926.74
2019-04-27T09:35:30.299Z,926.74
2019-04-27T09:37:01.914Z,926.77
2019-04-27T09:38:35.768Z,926.79
2019-04-27T09:40:06.308Z,926.82
2019-04-27T09:41:37.359Z,926.78
2019-04-27T09:43:09.174Z,926.80
2019-04-27T09:44:47.613Z,926.77
2019-04-27T09:46:15.757Z,926.80
2019-04-27T09:47:46.682Z,926.78
2019-04-27T09:49:16.436Z,926.76
2019-04-27T09:50:48.251Z,926.74
2019-04-27T09:52:26.312Z,926.73
2019-04-27T09:53:51.981Z,926.76
2019-04-27T09:55:23.697Z,926.78
2019-04-27T09:56:56.106Z,926.82
2019-04-27T09:58:27.327Z,926.74
2019-04-27T09:59:59.242Z,926.77
2019-04-27T10:01:30.959Z,926.74
2019-04-27T10:03:02.773Z,926.73
2019-04-27T10:04:35.614Z,926.75
2019-04-27T10:06:06.404Z,926.75
2019-04-27T10:07:38.225Z,926.80
2019-04-27T10:09:10.034Z,926.83
2019-04-27T10:10:41.851Z,926.92
2019-04-27T10:12:13.766Z,926.97
2019-04-27T10:13:46.552Z,926.93
2019-04-27T10:15:17.298Z,926.95
2019-04-27T10:16:49.113Z,926.94
2019-04-27T10:18:20.928Z,926.97
2019-04-27T10:19:52.768Z,926.99
2019-04-27T10:21:26.319Z,927.03
2019-04-27T10:22:56.623Z,927.05
2019-04-27T10:24:28.295Z,927.05
2019-04-27T10:26:00.123Z,927.10
2019-04-27T10:27:31.824Z,927.11
2019-04-27T10:29:03.641Z,927.10
2019-04-27T10:30:36.118Z,927.10
2019-04-27T10:33:39.091Z,927.20
2019-04-27T10:35:10.907Z,927.19
2019-04-27T10:36:42.724Z,927.17
2019-04-27T10:38:15.396Z,927.19
2019-04-27T10:41:18.281Z,927.21
2019-04-27T10:42:49.991Z,927.19
2019-04-27T10:44:21.808Z,927.18
2019-04-27T10:45:53.681Z,927.19
2019-04-27T10:47:26.016Z,927.23
2019-04-27T10:48:57.455Z,927.23
2019-04-27T10:50:29.080Z,927.24
2019-04-27T10:52:00.899Z,927.20
2019-04-27T10:53:32.773Z,927.23
2019-04-27T10:55:05.991Z,927.26
2019-04-27T10:56:36.352Z,927.27
2019-04-27T10:59:40.123Z,927.26
2019-04-27T11:01:11.923Z,927.29
2019-04-27T11:02:43.744Z,927.29
2019-04-27T11:05:47.268Z,927.30
2019-04-27T11:07:19.486Z,927.27
2019-04-27T11:10:23.325Z,927.30
2019-04-27T11:11:56.493Z,927.32
2019-04-27T11:13:26.359Z,927.34
2019-04-27T11:14:58.175Z,927.34
2019-04-27T11:16:30.112Z,927.35
2019-04-27T11:18:01.814Z,927.36
2019-04-27T11:19:33.635Z,927.36
2019-04-27T11:22:37.271Z,927.42
2019-04-27T11:24:09.155Z,927.47
2019-04-27T11:25:41.378Z,927.43
2019-04-27T11:27:12.732Z,927.45
2019-04-27T11:28:45.887Z,927.43
2019-04-27T11:30:16.372Z,927.42
2019-04-27T11:31:48.193Z,927.43
2019-04-27T11:33:20.016Z,927.46
2019-04-27T11:34:51.997Z,927.45
2019-04-27T11:36:25.497Z,927.43
2019-04-27T11:37:55.792Z,927.51
2019-04-27T11:39:27.300Z,927.49
2019-04-27T11:40:59.122Z,927.48
2019-04-27T11:42:31.474Z,927.54
2019-04-27T11:44:02.866Z,927.58
2019-04-27T11:45:36.604Z,927.57
2019-04-27T11:47:06.411Z,927.59
2019-04-27T11:50:10.056Z,927.62
2019-04-27T11:51:41.995Z,927.59
2019-04-27T11:53:22.126Z,927.68
2019-04-27T11:54:46.233Z,927.60
2019-04-27T11:56:17.810Z,927.63
2019-04-27T11:57:49.303Z,927.62
2019-04-27T11:59:21.297Z,927.60
2019-04-27T12:00:52.815Z,927.61
2019-04-27T12:02:25.753Z,927.67
2019-04-27T12:03:56.463Z,927.67
2019-04-27T12:05:28.399Z,927.70
2019-04-27T12:07:00.108Z,927.70
2019-04-27T12:08:32.794Z,927.69
2019-04-27T12:10:05.575Z,927.77
2019-04-27T12:11:36.264Z,927.70
2019-04-27T12:13:07.766Z,927.71
2019-04-27T12:14:39.427Z,927.67
2019-04-27T12:16:11.050Z,927.69
2019-04-27T12:17:43.578Z,927.72
2019-04-27T12:19:16.410Z,927.64
2019-04-27T12:20:47.126Z,927.71
2019-04-27T12:22:18.547Z,927.66
2019-04-27T12:23:50.227Z,927.68
2019-04-27T12:25:22.128Z,927.63
2019-04-27T12:29:58.066Z,927.71
2019-04-27T12:31:29.346Z,927.65
2019-04-27T12:33:01.231Z,927.60
2019-04-27T12:34:32.930Z,927.54
2019-04-27T12:36:06.639Z,927.56
2019-04-27T12:45:18.239Z,927.54
2019-04-27T12:46:48.051Z,927.60
2019-04-27T12:48:20.080Z,927.56
2019-04-27T12:49:51.805Z,927.53
2019-04-27T12:51:24.270Z,927.50
2019-04-27T12:52:54.819Z,927.51
2019-04-27T12:54:27.173Z,927.47
2019-04-27T12:55:59.060Z,927.45
2019-04-27T12:59:02.115Z,927.42
2019-04-27T13:05:11.229Z,927.40
2019-04-27T13:06:41.239Z,927.34
2019-04-27T13:12:48.536Z,927.38
2019-04-27T13:14:20.410Z,927.32
2019-04-27T13:15:52.299Z,927.33
2019-04-27T13:17:24.009Z,927.22
2019-04-27T13:18:57.592Z,927.27
2019-04-27T13:20:27.860Z,927.23
2019-04-27T13:21:59.539Z,927.18
2019-04-27T13:23:31.374Z,927.24
2019-04-27T13:25:03.438Z,927.20
2019-04-27T13:26:36.206Z,927.15
2019-04-27T13:28:06.785Z,927.11
2019-04-27T13:32:45.979Z,927.00
2019-04-27T13:34:15.868Z,927.00
2019-04-27T13:35:46.217Z,926.99
2019-04-27T13:37:18.034Z,927.02
2019-04-27T13:38:51.043Z,926.91
2019-04-27T13:41:53.215Z,926.96
2019-04-27T13:44:58.070Z,926.88
2019-04-27T13:46:28.734Z,926.90
2019-04-27T13:48:01.100Z,926.82
2019-04-27T13:51:06.642Z,926.87
2019-04-27T13:52:36.807Z,926.88
2019-04-27T13:54:17.304Z,926.82
2019-04-27T13:57:11.576Z,927.00
2019-04-27T13:58:43.503Z,926.80
2019-04-27T14:00:15.123Z,926.78
2019-04-27T14:01:46.948Z,926.72
2019-04-27T14:03:21.000Z,926.73
2019-04-27T14:04:50.854Z,926.73
2019-04-27T14:06:23.481Z,926.69
2019-04-27T14:07:54.373Z,926.68
2019-04-27T14:09:26.175Z,926.61
2019-04-27T14:11:01.093Z,926.61
2019-04-27T14:15:35.097Z,926.41
2019-04-27T14:17:05.356Z,926.56
2019-04-27T14:18:38.505Z,926.48
2019-04-27T14:20:09.734Z,926.55
2019-04-27T14:21:41.380Z,926.48
2019-04-27T14:23:12.530Z,926.35
2019-04-27T14:24:44.764Z,926.49
2019-04-27T14:26:16.183Z,926.47
2019-04-27T14:27:48.907Z,926.57
2019-04-27T14:29:20.119Z,926.39
2019-04-27T14:30:51.689Z,926.37
2019-04-27T14:32:24.054Z,926.37
2019-04-27T14:35:28.281Z,926.36
2019-04-27T14:36:59.436Z,926.29
2019-04-27T14:38:31.467Z,926.24
2019-04-27T14:43:08.453Z,926.21
2019-04-27T14:44:38.944Z,926.26
2019-04-27T14:46:10.860Z,926.21
2019-04-27T14:47:42.228Z,926.26
2019-04-27T14:49:13.800Z,926.16
2019-04-27T14:50:45.401Z,926.17
2019-04-27T14:52:18.770Z,926.26
2019-04-27T14:53:49.694Z,926.24
2019-04-27T14:55:21.840Z,926.20
2019-04-27T14:58:25.449Z,926.16
2019-04-27T14:59:58.360Z,926.17
2019-04-27T15:03:01.509Z,925.93
2019-04-27T15:04:33.667Z,925.98
2019-04-27T15:06:04.985Z,925.88
2019-04-27T15:07:36.947Z,925.85
2019-04-27T15:09:07.332Z,925.74
2019-04-27T15:10:39.378Z,925.68
2019-04-27T15:12:11.257Z,925.76
2019-04-27T15:13:47.822Z,925.67
2019-04-27T15:16:47.956Z,925.63
2019-04-27T15:18:19.693Z,925.66
2019-04-27T15:19:52.671Z,925.50
2019-04-27T15:21:22.080Z,925.43
2019-04-27T15:22:56.848Z,925.40
2019-04-27T15:24:25.590Z,925.25
2019-04-27T15:25:57.681Z,925.50
2019-04-27T15:27:30.805Z,925.39
2019-04-27T15:29:01.076Z,925.47
2019-04-27T15:30:35.136Z,925.34
2019-04-27T15:32:05.085Z,925.34
2019-04-27T15:33:36.512Z,925.35
2019-04-27T15:35:09.874Z,925.37
2019-04-27T15:36:40.154Z,925.46
2019-04-27T15:39:44.979Z,925.39
2019-04-27T15:41:15.630Z,925.37
2019-04-27T15:45:53.413Z,925.63
2019-04-27T15:48:55.392Z,925.46
2019-04-27T15:50:30.765Z,925.29
2019-04-27T15:52:00.158Z,925.46
2019-04-27T15:53:30.242Z,925.48
2019-04-27T15:55:02.824Z,925.25
2019-04-27T15:56:35.290Z,925.41
2019-04-27T15:58:05.920Z,925.29
2019-04-27T15:59:40.839Z,925.08
2019-04-27T16:01:11.895Z,924.94
2019-04-27T16:02:44.477Z,925.00
2019-04-27T16:04:13.049Z,924.86
2019-04-27T16:05:44.828Z,924.99
2019-04-27T16:07:24.659Z,925.00
2019-04-27T16:08:49.263Z,925.18
2019-04-27T16:10:21.854Z,925.04
2019-04-27T16:11:58.690Z,925.03
2019-04-27T16:14:57.981Z,924.98
2019-04-27T16:16:29.127Z,924.84
2019-04-27T16:17:59.662Z,924.72
2019-04-27T16:21:07.101Z,924.56
2019-04-27T16:22:35.172Z,924.56
2019-04-27T16:24:08.463Z,924.34
2019-04-27T16:25:48.536Z,924.51
2019-04-27T16:27:10.436Z,924.63
2019-04-27T16:30:18.198Z,924.50
2019-04-27T16:31:47.994Z,924.55
2019-04-27T16:33:20.256Z,924.74
2019-04-27T16:34:50.244Z,924.70
2019-04-27T16:36:22.491Z,924.50
2019-04-27T16:37:56.352Z,924.41
2019-04-27T16:39:25.603Z,924.24
2019-04-27T16:41:01.887Z,924.30
2019-04-27T16:42:28.821Z,924.29
2019-04-27T16:44:02.358Z,924.26
2019-04-27T16:45:32.612Z,924.23
2019-04-27T16:47:04.215Z,924.30
2019-04-27T16:48:36.339Z,924.33
2019-04-27T16:50:08.451Z,924.22
2019-04-27T16:51:40.432Z,924.28
2019-04-27T16:53:12.613Z,924.27
2019-04-27T16:54:43.485Z,924.42
2019-04-27T16:59:39.621Z,924.46
2019-04-27T17:00:51.072Z,924.38
2019-04-27T17:02:25.161Z,924.33
2019-04-27T17:03:54.829Z,924.39
2019-04-27T17:06:59.123Z,924.34
2019-04-27T17:11:35.064Z,924.14
2019-04-27T17:13:10.552Z,924.25
2019-04-27T17:14:38.663Z,924.03
2019-04-27T17:16:09.515Z,924.13
2019-04-27T17:17:42.711Z,924.15
2019-04-27T17:19:13.084Z,924.20
2019-04-27T17:20:44.696Z,924.11
2019-04-27T17:22:16.455Z,924.03
2019-04-27T17:23:48.201Z,923.92
2019-04-27T17:25:23.290Z,923.97
2019-04-27T17:26:52.106Z,924.04
2019-04-27T17:28:23.611Z,924.04
2019-04-27T17:29:59.535Z,923.96
2019-04-27T17:31:28.771Z,924.04
2019-04-27T17:33:01.538Z,924.07
2019-04-27T17:34:30.736Z,923.98
2019-04-27T17:36:03.037Z,924.14
2019-04-27T17:37:34.965Z,924.14
2019-04-27T17:39:06.182Z,924.20
2019-04-27T17:40:39.028Z,923.96
2019-04-27T17:42:10.091Z,923.94
2019-04-27T17:43:42.815Z,924.01
2019-04-27T17:45:13.681Z,924.09
2019-04-27T17:48:18.438Z,923.96
2019-04-27T17:49:48.931Z,923.88
2019-04-27T17:52:57.383Z,923.87
2019-04-27T17:56:02.686Z,923.78
2019-04-27T17:57:30.176Z,923.85
2019-04-27T17:59:00.433Z,923.75
2019-04-27T18:00:33.006Z,923.75
2019-04-27T18:03:36.334Z,923.72
2019-04-27T18:06:42.486Z,923.75
2019-04-27T18:08:13.522Z,923.82
2019-04-27T18:09:43.872Z,923.89
2019-04-27T18:11:14.700Z,923.63
2019-04-27T18:12:48.540Z,923.62
2019-04-27T18:14:19.220Z,923.54
2019-04-27T18:15:54.001Z,923.67
2019-04-27T18:17:21.945Z,923.61
2019-04-27T18:20:25.491Z,923.50
2019-04-27T18:22:00.537Z,923.45
2019-04-27T18:23:29.036Z,923.49
2019-04-27T18:25:06.153Z,923.52
2019-04-27T18:26:32.886Z,923.47
2019-04-27T18:28:08.010Z,923.45
2019-04-27T18:29:38.648Z,923.51
2019-04-27T18:31:11.534Z,923.43
2019-04-27T18:32:40.473Z,923.49
2019-04-27T18:34:15.041Z,923.44
2019-04-27T18:37:20.908Z,923.53
2019-04-27T18:38:47.274Z,923.54
2019-04-27T18:41:54.226Z,923.47
2019-04-27T18:43:22.917Z,923.49
2019-04-27T18:44:54.843Z,923.48
2019-04-27T18:46:28.204Z,923.52
2019-04-27T18:47:59.385Z,923.56
2019-04-27T18:49:30.246Z,923.56
2019-04-27T18:54:05.812Z,923.44
2019-04-27T18:55:38.263Z,923.40
2019-04-27T18:57:10.918Z,923.38
2019-04-27T18:58:41.645Z,923.37
2019-04-27T19:00:12.999Z,923.39
2019-04-27T19:01:44.895Z,923.44
2019-04-27T19:04:50.145Z,923.47
2019-04-27T19:07:52.132Z,923.43
2019-04-27T19:09:24.275Z,923.42
2019-04-27T19:12:28.705Z,923.49
2019-04-27T19:15:31.355Z,923.34
2019-04-27T19:17:03.015Z,923.39
2019-04-27T19:18:34.718Z,923.35
2019-04-27T19:21:39.238Z,923.38
2019-04-27T19:24:42.101Z,923.48
2019-04-27T19:26:14.042Z,923.48
2019-04-27T19:27:48.531Z,923.45
2019-04-27T19:29:18.907Z,923.47
2019-04-27T19:30:50.371Z,923.44
2019-04-27T19:32:21.078Z,923.43
2019-04-27T19:33:53.077Z,923.37
2019-04-27T19:35:24.771Z,923.42
2019-04-27T19:36:59.045Z,923.41
2019-04-27T19:38:28.941Z,923.39
2019-04-27T19:40:00.228Z,923.35
2019-04-27T19:41:32.046Z,923.40
2019-04-27T19:43:03.834Z,923.39
2019-04-27T19:44:35.662Z,923.40
2019-04-27T19:46:07.498Z,923.51
2019-04-27T19:47:39.321Z,923.58
2019-04-27T19:49:11.120Z,923.54
2019-04-27T19:50:42.969Z,923.45
2019-04-27T19:53:46.695Z,923.57
2019-04-27T19:55:19.018Z,923.45
2019-04-27T19:56:50.241Z,923.47
2019-04-27T19:59:53.875Z,923.56
2019-04-27T20:01:25.724Z,923.54
2019-04-27T20:02:57.516Z,923.47
2019-04-27T20:04:30.733Z,923.50
2019-04-27T20:06:01.204Z,923.53
2019-04-27T20:09:04.836Z,923.58
2019-04-27T20:10:36.658Z,923.47
2019-04-27T20:12:10.395Z,923.40
2019-04-27T20:13:40.291Z,923.50
2019-04-27T20:15:12.089Z,923.50
2019-04-27T20:16:43.908Z,923.52
2019-04-27T20:18:15.732Z,923.46
2019-04-27T20:19:47.959Z,923.49
2019-04-27T20:21:20.970Z,923.53
2019-04-27T20:22:51.193Z,923.58
2019-04-27T20:24:23.131Z,923.56
2019-04-27T20:25:54.839Z,923.67
2019-04-27T20:27:26.658Z,923.59
2019-04-27T20:30:31.587Z,923.55
2019-04-27T20:32:02.128Z,923.54
2019-04-27T20:33:33.933Z,923.55
2019-04-27T20:35:05.751Z,923.57
2019-04-27T20:36:37.570Z,923.57
2019-04-27T20:38:10.913Z,923.55
2019-04-27T20:39:42.829Z,923.55
2019-04-27T20:41:13.030Z,923.60
2019-04-27T20:42:44.850Z,923.55
2019-04-27T20:44:16.670Z,923.57
2019-04-27T20:45:48.489Z,923.54
2019-04-27T20:47:20.346Z,923.60
2019-04-27T20:48:52.228Z,923.62
2019-04-27T20:50:23.949Z,923.63
2019-04-27T20:51:55.786Z,923.59
2019-04-27T20:53:27.589Z,923.60
2019-04-27T20:55:01.385Z,923.62